ascensiondal
621.6853 TLOS
.0000 TLOS in REX

511.6853 TLOS

UNSTAKED

110.0000 TLOS

STAKED

NET 0.0000 / CPU 0.0000

UNSTAKING

2.05 ms. / 0.02 hr.

CPU 10.00 TLOS

1.04 KB / 3.58 GB

BANDWIDTH 100.00 TLOS

1,096.16 KB / 1,856.89 KB

MEMORY USAGE 59.03 %
TOKENS
VOTES
Showing 1 to 200 entries
ACTIONS
DATE BLOCK TRX TYPE DATA
2021-11-22T18:37:49.500 185381127 cee50b... addobs {pressure_hpa=1008.2000122070312, longitude_deg=0, elevation2_m=0, launch_id=m4hzehh35bgf, gps_elevation_m=0, humidity_percent=48.7400016784668, unix_time_s=1637606268, latitude_deg=0, flags=238, temperature_c=21}
2021-11-22T18:37:43.500 185381115 628472... addobs {pressure_hpa=1008.2000122070312, longitude_deg=0, elevation2_m=0, launch_id=m4hzehh35bgf, gps_elevation_m=0, humidity_percent=45.63999938964844, unix_time_s=1637606262, latitude_deg=0, flags=238, temperature_c=20.940000534057617}
2021-11-22T18:37:40.000 185381108 606709... addobs {pressure_hpa=1008.2000122070312, longitude_deg=0, elevation2_m=0, launch_id=m4hzehh35bgf, gps_elevation_m=0, humidity_percent=45.7599983215332, unix_time_s=1637606259, latitude_deg=0, flags=238, temperature_c=20.93000030517578}
2021-11-22T18:35:40.500 185380869 faff74... addobs {pressure_hpa=1008.2000122070312, longitude_deg=0, elevation2_m=0, launch_id=m4hzehh35bgf, gps_elevation_m=0, humidity_percent=48.72999954223633, unix_time_s=1637606139, latitude_deg=0, flags=238, temperature_c=19.850000381469727}
2021-11-22T18:24:09.500 185379487 e4b970... addobs {pressure_hpa=1008.4000244140625, longitude_deg=0, elevation2_m=0, launch_id=m4hzehh35bgf, gps_elevation_m=0, humidity_percent=45.84000015258789, unix_time_s=1637605449, latitude_deg=0, flags=237, temperature_c=21.700000762939453}
2021-11-22T18:24:06.500 185379481 16340c... addobs {pressure_hpa=1008.4000244140625, longitude_deg=0, elevation2_m=0, launch_id=m4hzehh35bgf, gps_elevation_m=0, humidity_percent=45.810001373291016, unix_time_s=1637605445, latitude_deg=0, flags=237, temperature_c=21.690000534057617}
2021-11-22T18:14:41.000 185378350 63388d... settimeslots {first_start_time=1637601276}
2021-11-22T17:58:54.000 185376456 0427b5... websetlaunch {surf_pressure=1008, launch_id=m4hzehh35bgf, unix_time=1637603933, device_type=Cybaart Kanda v0.3.2, miner=noderedtelos, wxcondition=Unknown}
2021-11-19T20:17:16.500 184875487 434628... addobs {pressure_hpa=1008.9000244140625, longitude_deg=0, elevation2_m=0, launch_id=51cz3pzljufy, gps_elevation_m=0, humidity_percent=23.979999542236328, unix_time_s=1637353035, latitude_deg=0, flags=233, temperature_c=15.1899995803833}
2021-11-19T20:17:13.500 184875481 de1496... addobs {pressure_hpa=1008.9000244140625, longitude_deg=0, elevation2_m=0, launch_id=51cz3pzljufy, gps_elevation_m=0, humidity_percent=23.90999984741211, unix_time_s=1637353032, latitude_deg=0, flags=233, temperature_c=15.199999809265137}
2021-11-19T20:17:07.500 184875469 fc438d... addobs {pressure_hpa=1008.7999877929688, longitude_deg=0, elevation2_m=0, launch_id=51cz3pzljufy, gps_elevation_m=0, humidity_percent=23.959999084472656, unix_time_s=1637353026, latitude_deg=0, flags=233, temperature_c=15.229999542236328}
2021-11-19T20:16:58.500 184875451 cd4986... addobs {pressure_hpa=1008.5999755859375, longitude_deg=0, elevation2_m=0, launch_id=51cz3pzljufy, gps_elevation_m=0, humidity_percent=24.06999969482422, unix_time_s=1637353017, latitude_deg=0, flags=233, temperature_c=15.25}
2021-11-19T20:16:52.500 184875439 911501... addobs {pressure_hpa=1008.5999755859375, longitude_deg=0, elevation2_m=0, launch_id=51cz3pzljufy, gps_elevation_m=0, humidity_percent=24.09000015258789, unix_time_s=1637353011, latitude_deg=0, flags=233, temperature_c=15.199999809265137}
2021-11-19T20:16:46.500 184875427 f4e694... addobs {pressure_hpa=1008.5999755859375, longitude_deg=0, elevation2_m=0, launch_id=51cz3pzljufy, gps_elevation_m=0, humidity_percent=24.1200008392334, unix_time_s=1637353005, latitude_deg=0, flags=233, temperature_c=15.170000076293945}
2021-11-19T20:16:43.500 184875421 7b7eaf... addobs {pressure_hpa=1008.5999755859375, longitude_deg=0, elevation2_m=0, launch_id=51cz3pzljufy, gps_elevation_m=0, humidity_percent=24, unix_time_s=1637353002, latitude_deg=0, flags=233, temperature_c=15.100000381469727}
2021-11-19T20:16:37.500 184875409 cebb3a... addobs {pressure_hpa=1008.5999755859375, longitude_deg=0, elevation2_m=0, launch_id=51cz3pzljufy, gps_elevation_m=0, humidity_percent=24.110000610351562, unix_time_s=1637352996, latitude_deg=0, flags=233, temperature_c=15.069999694824219}
2021-11-19T20:16:31.500 184875397 fa6737... addobs {pressure_hpa=1008.5999755859375, longitude_deg=0, elevation2_m=0, launch_id=51cz3pzljufy, gps_elevation_m=0, humidity_percent=24.139999389648438, unix_time_s=1637352990, latitude_deg=0, flags=233, temperature_c=15.069999694824219}
2021-11-19T20:16:28.500 184875391 ae45fa... addobs {pressure_hpa=1008.5999755859375, longitude_deg=0, elevation2_m=0, launch_id=51cz3pzljufy, gps_elevation_m=0, humidity_percent=24.350000381469727, unix_time_s=1637352987, latitude_deg=0, flags=233, temperature_c=15.09000015258789}
2021-11-19T20:16:22.500 184875379 79895d... addobs {pressure_hpa=1008.5999755859375, longitude_deg=0, elevation2_m=0, launch_id=51cz3pzljufy, gps_elevation_m=0, humidity_percent=24.170000076293945, unix_time_s=1637352981, latitude_deg=0, flags=233, temperature_c=15.100000381469727}
2021-11-19T20:16:16.500 184875367 6e209d... addobs {pressure_hpa=1008.5999755859375, longitude_deg=0, elevation2_m=0, launch_id=51cz3pzljufy, gps_elevation_m=0, humidity_percent=24.06999969482422, unix_time_s=1637352975, latitude_deg=0, flags=233, temperature_c=15.109999656677246}
2021-11-19T20:16:13.500 184875361 0ad6e9... addobs {pressure_hpa=1008.5999755859375, longitude_deg=0, elevation2_m=0, launch_id=51cz3pzljufy, gps_elevation_m=0, humidity_percent=23.899999618530273, unix_time_s=1637352972, latitude_deg=0, flags=233, temperature_c=15.130000114440918}
2021-11-19T20:16:07.500 184875349 4cc041... addobs {pressure_hpa=1008.5999755859375, longitude_deg=0, elevation2_m=0, launch_id=51cz3pzljufy, gps_elevation_m=0, humidity_percent=24.010000228881836, unix_time_s=1637352966, latitude_deg=0, flags=233, temperature_c=15.119999885559082}
2021-11-19T20:16:01.500 184875337 2072b6... addobs {pressure_hpa=1008.5999755859375, longitude_deg=0, elevation2_m=0, launch_id=51cz3pzljufy, gps_elevation_m=0, humidity_percent=24.15999984741211, unix_time_s=1637352960, latitude_deg=0, flags=233, temperature_c=15.170000076293945}
2021-11-19T20:15:58.500 184875331 ab1877... addobs {pressure_hpa=1008.5999755859375, longitude_deg=0, elevation2_m=0, launch_id=51cz3pzljufy, gps_elevation_m=0, humidity_percent=24.25, unix_time_s=1637352957, latitude_deg=0, flags=233, temperature_c=15.1899995803833}
2021-11-19T20:15:52.500 184875319 5aea20... addobs {pressure_hpa=1008.5999755859375, longitude_deg=0, elevation2_m=0, launch_id=51cz3pzljufy, gps_elevation_m=0, humidity_percent=24.3799991607666, unix_time_s=1637352951, latitude_deg=0, flags=233, temperature_c=15.15999984741211}
2021-11-19T20:15:46.500 184875307 012af7... addobs {pressure_hpa=1008.7999877929688, longitude_deg=0, elevation2_m=0, launch_id=51cz3pzljufy, gps_elevation_m=0, humidity_percent=24.469999313354492, unix_time_s=1637352945, latitude_deg=0, flags=233, temperature_c=15.1899995803833}
2021-11-19T20:15:40.500 184875295 54bbe4... addobs {pressure_hpa=1008.9000244140625, longitude_deg=0, elevation2_m=0, launch_id=51cz3pzljufy, gps_elevation_m=0, humidity_percent=24.389999389648438, unix_time_s=1637352939, latitude_deg=0, flags=233, temperature_c=15.25}
2021-11-19T20:15:37.000 184875288 93b65c... addobs {pressure_hpa=1009, longitude_deg=0, elevation2_m=0, launch_id=51cz3pzljufy, gps_elevation_m=0, humidity_percent=24.350000381469727, unix_time_s=1637352936, latitude_deg=0, flags=233, temperature_c=15.279999732971191}
2021-11-19T20:15:31.500 184875277 8a9484... addobs {pressure_hpa=1009.0999755859375, longitude_deg=0, elevation2_m=0, launch_id=51cz3pzljufy, gps_elevation_m=0, humidity_percent=24.479999542236328, unix_time_s=1637352930, latitude_deg=0, flags=233, temperature_c=15.34000015258789}
2021-11-19T20:15:28.500 184875271 055ceb... addobs {pressure_hpa=1009.2000122070312, longitude_deg=0, elevation2_m=0, launch_id=51cz3pzljufy, gps_elevation_m=0, humidity_percent=24.850000381469727, unix_time_s=1637352927, latitude_deg=0, flags=233, temperature_c=15.350000381469727}
2021-11-19T20:15:22.500 184875259 cbfddd... addobs {pressure_hpa=1009.2999877929688, longitude_deg=0, elevation2_m=0, launch_id=51cz3pzljufy, gps_elevation_m=0, humidity_percent=25.5, unix_time_s=1637352921, latitude_deg=0, flags=233, temperature_c=15.369999885559082}
2021-11-19T20:15:16.500 184875247 b9de84... addobs {pressure_hpa=1009.2999877929688, longitude_deg=0, elevation2_m=0, launch_id=51cz3pzljufy, gps_elevation_m=0, humidity_percent=24.790000915527344, unix_time_s=1637352915, latitude_deg=0, flags=233, temperature_c=15.329999923706055}
2021-11-19T20:15:13.500 184875241 1e4f49... addobs {pressure_hpa=1009.2999877929688, longitude_deg=0, elevation2_m=0, launch_id=51cz3pzljufy, gps_elevation_m=0, humidity_percent=24.479999542236328, unix_time_s=1637352912, latitude_deg=0, flags=233, temperature_c=15.289999961853027}
2021-11-19T20:15:07.500 184875229 b1f2e0... addobs {pressure_hpa=1009.2999877929688, longitude_deg=0, elevation2_m=0, launch_id=51cz3pzljufy, gps_elevation_m=0, humidity_percent=24.299999237060547, unix_time_s=1637352906, latitude_deg=0, flags=233, temperature_c=15.210000038146973}
2021-11-19T20:15:01.500 184875217 04a5c0... addobs {pressure_hpa=1009.2999877929688, longitude_deg=0, elevation2_m=0, launch_id=51cz3pzljufy, gps_elevation_m=0, humidity_percent=24.399999618530273, unix_time_s=1637352900, latitude_deg=0, flags=233, temperature_c=15.149999618530273}
2021-11-19T20:14:58.000 184875210 dc1c40... addobs {pressure_hpa=1009.2999877929688, longitude_deg=0, elevation2_m=0, launch_id=51cz3pzljufy, gps_elevation_m=0, humidity_percent=24.360000610351562, unix_time_s=1637352897, latitude_deg=0, flags=233, temperature_c=15.079999923706055}
2021-11-19T20:14:52.500 184875199 561575... addobs {pressure_hpa=1009.2999877929688, longitude_deg=0, elevation2_m=0, launch_id=51cz3pzljufy, gps_elevation_m=0, humidity_percent=23.889999389648438, unix_time_s=1637352891, latitude_deg=0, flags=233, temperature_c=15.069999694824219}
2021-11-19T20:14:46.500 184875187 2b121c... addobs {pressure_hpa=1009.2000122070312, longitude_deg=0, elevation2_m=0, launch_id=51cz3pzljufy, gps_elevation_m=0, humidity_percent=23.920000076293945, unix_time_s=1637352885, latitude_deg=0, flags=233, temperature_c=15.100000381469727}
2021-11-19T20:14:43.500 184875181 faf93a... addobs {pressure_hpa=1009.0999755859375, longitude_deg=0, elevation2_m=0, launch_id=51cz3pzljufy, gps_elevation_m=0, humidity_percent=23.81999969482422, unix_time_s=1637352882, latitude_deg=0, flags=233, temperature_c=15.119999885559082}
2021-11-19T20:14:37.500 184875169 d01a91... addobs {pressure_hpa=1009, longitude_deg=0, elevation2_m=0, launch_id=51cz3pzljufy, gps_elevation_m=0, humidity_percent=23.959999084472656, unix_time_s=1637352876, latitude_deg=0, flags=233, temperature_c=15.130000114440918}
2021-11-19T20:14:31.500 184875157 509d12... addobs {pressure_hpa=1008.9000244140625, longitude_deg=0, elevation2_m=0, launch_id=51cz3pzljufy, gps_elevation_m=0, humidity_percent=24.100000381469727, unix_time_s=1637352870, latitude_deg=0, flags=233, temperature_c=15.15999984741211}
2021-11-19T20:14:28.500 184875151 59be9e... addobs {pressure_hpa=1009, longitude_deg=0, elevation2_m=0, launch_id=51cz3pzljufy, gps_elevation_m=0, humidity_percent=24.219999313354492, unix_time_s=1637352867, latitude_deg=0, flags=233, temperature_c=15.15999984741211}
2021-11-19T20:14:22.500 184875139 6c4bf7... websetlaunch {surf_pressure=1008, launch_id=51cz3pzljufy, unix_time=1637352861, device_type=Cybaart Kanda v0.3.1, miner=ascensiondal, wxcondition=Unknown}
2021-11-18T11:16:18.000 184637855 386c6f... addobs {pressure_hpa=999.7999877929688, longitude_deg=-97.2931137084961, elevation2_m=59, launch_id=tugbk1boj3va, gps_elevation_m=789, humidity_percent=36.119998931884766, unix_time_s=1637234177, latitude_deg=32.76030731201172, flags=217, temperature_c=7.800000190734863}
2021-11-18T11:16:12.000 184637843 e7c89a... addobs {pressure_hpa=987.5999755859375, longitude_deg=-97.29320526123047, elevation2_m=160, launch_id=tugbk1boj3va, gps_elevation_m=968, humidity_percent=36.369998931884766, unix_time_s=1637234171, latitude_deg=32.76066207885742, flags=217, temperature_c=7.050000190734863}
2021-11-18T11:16:06.000 184637831 c97516... addobs {pressure_hpa=975.7999877929688, longitude_deg=-97.29318237304688, elevation2_m=258, launch_id=tugbk1boj3va, gps_elevation_m=1131, humidity_percent=36.130001068115234, unix_time_s=1637234165, latitude_deg=32.76116180419922, flags=217, temperature_c=6.389999866485596}
2021-11-18T11:16:03.000 184637825 8e33b8... addobs {pressure_hpa=964.2000122070312, longitude_deg=-97.29309844970703, elevation2_m=357, launch_id=tugbk1boj3va, gps_elevation_m=1277, humidity_percent=36.20000076293945, unix_time_s=1637234162, latitude_deg=32.76173782348633, flags=217, temperature_c=5.760000228881836}
2021-11-18T11:15:57.000 184637813 8ff77c... addobs {pressure_hpa=952.2999877929688, longitude_deg=-97.29300689697266, elevation2_m=458, launch_id=tugbk1boj3va, gps_elevation_m=1455, humidity_percent=35.5, unix_time_s=1637234156, latitude_deg=32.76228713989258, flags=217, temperature_c=5.349999904632568}
2021-11-18T11:15:51.000 184637801 e7c84a... addobs {pressure_hpa=941.0999755859375, longitude_deg=-97.29293823242188, elevation2_m=554, launch_id=tugbk1boj3va, gps_elevation_m=1763, humidity_percent=33.16999816894531, unix_time_s=1637234150, latitude_deg=32.7630729675293, flags=217, temperature_c=5.159999847412109}
2021-11-18T11:15:48.000 184637795 4511eb... addobs {pressure_hpa=929.4000244140625, longitude_deg=-97.29249572753906, elevation2_m=656, launch_id=tugbk1boj3va, gps_elevation_m=1890, humidity_percent=29.559999465942383, unix_time_s=1637234147, latitude_deg=32.76381301879883, flags=217, temperature_c=5.25}
2021-11-18T11:15:42.000 184637783 ef8ef9... addobs {pressure_hpa=918.4000244140625, longitude_deg=-97.29187774658203, elevation2_m=754, launch_id=tugbk1boj3va, gps_elevation_m=2010, humidity_percent=23.110000610351562, unix_time_s=1637234141, latitude_deg=32.76458740234375, flags=217, temperature_c=5.920000076293945}
2021-11-18T11:15:33.000 184637765 ce6ec6... addobs {pressure_hpa=897.2000122070312, longitude_deg=-97.2906265258789, elevation2_m=946, launch_id=tugbk1boj3va, gps_elevation_m=2237, humidity_percent=23.360000610351562, unix_time_s=1637234132, latitude_deg=32.76601791381836, flags=217, temperature_c=6.980000019073486}
2021-11-18T11:15:21.000 184637741 c350ab... addobs {pressure_hpa=873.9000244140625, longitude_deg=-97.28946685791016, elevation2_m=1161, launch_id=tugbk1boj3va, gps_elevation_m=2515, humidity_percent=27.399999618530273, unix_time_s=1637234120, latitude_deg=32.7673225402832, flags=217, temperature_c=6.480000019073486}
2021-11-18T11:15:12.000 184637723 58fdcc... addobs {pressure_hpa=854.5, longitude_deg=-97.28846740722656, elevation2_m=1345, launch_id=tugbk1boj3va, gps_elevation_m=2763, humidity_percent=48.06999969482422, unix_time_s=1637234111, latitude_deg=32.76836395263672, flags=217, temperature_c=6.599999904632568}
2021-11-18T11:15:03.000 184637705 17d316... addobs {pressure_hpa=831.2999877929688, longitude_deg=-97.28817749023438, elevation2_m=1572, launch_id=tugbk1boj3va, gps_elevation_m=2923, humidity_percent=49.7400016784668, unix_time_s=1637234102, latitude_deg=32.769065856933594, flags=217, temperature_c=7.559999942779541}
2021-11-18T11:14:50.500 184637680 38098f... addobs {pressure_hpa=809, longitude_deg=-97.28858184814453, elevation2_m=1796, launch_id=tugbk1boj3va, gps_elevation_m=3047, humidity_percent=41.45000076293945, unix_time_s=1637234090, latitude_deg=32.76993179321289, flags=217, temperature_c=7.820000171661377}
2021-11-18T11:14:21.000 184637621 253c9b... addobs {pressure_hpa=744.5, longitude_deg=-97.29026794433594, elevation2_m=2476, launch_id=tugbk1boj3va, gps_elevation_m=3289, humidity_percent=34.15999984741211, unix_time_s=1637234060, latitude_deg=32.77120590209961, flags=209, temperature_c=4.5}
2021-11-18T11:13:20.500 184637500 107d1f... addobs {pressure_hpa=698.0999755859375, longitude_deg=-97.2973403930664, elevation2_m=2998, launch_id=tugbk1boj3va, gps_elevation_m=3179, humidity_percent=37.54999923706055, unix_time_s=1637234000, latitude_deg=32.77254867553711, flags=217, temperature_c=2.3399999141693115}
2021-11-18T11:12:51.000 184637441 43caaa... addobs {pressure_hpa=709.2999877929688, longitude_deg=-97.30203247070312, elevation2_m=2870, launch_id=tugbk1boj3va, gps_elevation_m=3050, humidity_percent=41.099998474121094, unix_time_s=1637233970, latitude_deg=32.77337646484375, flags=217, temperature_c=3.140000104904175}
2021-11-18T11:12:21.000 184637381 7e9cbf... addobs {pressure_hpa=720.4000244140625, longitude_deg=-97.30648803710938, elevation2_m=2743, launch_id=tugbk1boj3va, gps_elevation_m=2925, humidity_percent=39.18000030517578, unix_time_s=1637233940, latitude_deg=32.774330139160156, flags=217, temperature_c=3.950000047683716}
2021-11-18T11:11:51.000 184637321 6c91b9... addobs {pressure_hpa=731.4000244140625, longitude_deg=-97.31063079833984, elevation2_m=2620, launch_id=tugbk1boj3va, gps_elevation_m=2795, humidity_percent=32.650001525878906, unix_time_s=1637233910, latitude_deg=32.77533721923828, flags=217, temperature_c=4.889999866485596}
2021-11-18T11:11:22.000 184637263 1d9d12... addobs {pressure_hpa=742.5, longitude_deg=-97.3143310546875, elevation2_m=2497, launch_id=tugbk1boj3va, gps_elevation_m=2688, humidity_percent=30.75, unix_time_s=1637233881, latitude_deg=32.77647399902344, flags=217, temperature_c=5.650000095367432}
2021-11-18T11:10:52.000 184637203 5951d2... addobs {pressure_hpa=753.4000244140625, longitude_deg=-97.31765747070312, elevation2_m=2378, launch_id=tugbk1boj3va, gps_elevation_m=2569, humidity_percent=30.149999618530273, unix_time_s=1637233851, latitude_deg=32.777549743652344, flags=217, temperature_c=6.25}
2021-11-18T11:10:22.000 184637143 5a5834... addobs {pressure_hpa=764.4000244140625, longitude_deg=-97.32069396972656, elevation2_m=2259, launch_id=tugbk1boj3va, gps_elevation_m=2420, humidity_percent=34.880001068115234, unix_time_s=1637233821, latitude_deg=32.778587341308594, flags=217, temperature_c=6.570000171661377}
2021-11-18T11:09:52.000 184637083 062cf2... addobs {pressure_hpa=775.9000244140625, longitude_deg=-97.32305145263672, elevation2_m=2136, launch_id=tugbk1boj3va, gps_elevation_m=2297, humidity_percent=40.56999969482422, unix_time_s=1637233791, latitude_deg=32.77948760986328, flags=217, temperature_c=6.840000152587891}
2021-11-18T11:09:21.500 184637022 f0f815... addobs {pressure_hpa=787.7000122070312, longitude_deg=-97.3246078491211, elevation2_m=2012, launch_id=tugbk1boj3va, gps_elevation_m=2183, humidity_percent=42.18000030517578, unix_time_s=1637233761, latitude_deg=32.7805061340332, flags=217, temperature_c=7.460000038146973}
2021-11-18T11:08:51.500 184636962 72f50d... addobs {pressure_hpa=798.2000122070312, longitude_deg=-97.32583618164062, elevation2_m=1903, launch_id=tugbk1boj3va, gps_elevation_m=2093, humidity_percent=40.29999923706055, unix_time_s=1637233731, latitude_deg=32.781394958496094, flags=217, temperature_c=8.039999961853027}
2021-11-18T11:08:40.000 184636939 95ce62... addobs {pressure_hpa=801.2000122070312, longitude_deg=-97.32616424560547, elevation2_m=1872, launch_id=tugbk1boj3va, gps_elevation_m=2068, humidity_percent=40.220001220703125, unix_time_s=1637233719, latitude_deg=32.78174591064453, flags=217, temperature_c=8.050000190734863}
2021-11-18T11:08:30.500 184636920 7d876e... addobs {pressure_hpa=804.9000244140625, longitude_deg=-97.32649230957031, elevation2_m=1834, launch_id=tugbk1boj3va, gps_elevation_m=2028, humidity_percent=41.130001068115234, unix_time_s=1637233710, latitude_deg=32.78215026855469, flags=217, temperature_c=7.800000190734863}
2021-11-18T11:08:19.500 184636898 dc5d67... addobs {pressure_hpa=808.9000244140625, longitude_deg=-97.32674407958984, elevation2_m=1793, launch_id=tugbk1boj3va, gps_elevation_m=1977, humidity_percent=44.709999084472656, unix_time_s=1637233698, latitude_deg=32.782684326171875, flags=217, temperature_c=7.559999942779541}
2021-11-18T11:08:11.000 184636881 847100... addobs {pressure_hpa=812.7000122070312, longitude_deg=-97.32695007324219, elevation2_m=1755, launch_id=tugbk1boj3va, gps_elevation_m=1927, humidity_percent=46.45000076293945, unix_time_s=1637233689, latitude_deg=32.78323745727539, flags=217, temperature_c=7.510000228881836}
2021-11-18T11:08:01.500 184636862 1b99e5... addobs {pressure_hpa=816.9000244140625, longitude_deg=-97.32709503173828, elevation2_m=1712, launch_id=tugbk1boj3va, gps_elevation_m=1882, humidity_percent=47.310001373291016, unix_time_s=1637233680, latitude_deg=32.783775329589844, flags=217, temperature_c=7.420000076293945}
2021-11-18T11:07:50.000 184636839 6c5d8b... addobs {pressure_hpa=820.5, longitude_deg=-97.32716369628906, elevation2_m=1676, launch_id=tugbk1boj3va, gps_elevation_m=1842, humidity_percent=49.95000076293945, unix_time_s=1637233668, latitude_deg=32.78431701660156, flags=217, temperature_c=7.260000228881836}
2021-11-18T11:07:40.500 184636820 94f188... addobs {pressure_hpa=824.4000244140625, longitude_deg=-97.32714080810547, elevation2_m=1637, launch_id=tugbk1boj3va, gps_elevation_m=1808, humidity_percent=51.90999984741211, unix_time_s=1637233659, latitude_deg=32.78483581542969, flags=217, temperature_c=7.070000171661377}
2021-11-18T11:07:32.000 184636803 8c6139... addobs {pressure_hpa=828.0999755859375, longitude_deg=-97.3270034790039, elevation2_m=1600, launch_id=tugbk1boj3va, gps_elevation_m=1784, humidity_percent=52.70000076293945, unix_time_s=1637233650, latitude_deg=32.785362243652344, flags=217, temperature_c=6.960000038146973}
2021-11-18T11:07:19.500 184636778 2ff650... addobs {pressure_hpa=832.2000122070312, longitude_deg=-97.32671356201172, elevation2_m=1560, launch_id=tugbk1boj3va, gps_elevation_m=1745, humidity_percent=54.189998626708984, unix_time_s=1637233638, latitude_deg=32.78591537475586, flags=217, temperature_c=6.860000133514404}
2021-11-18T11:07:10.500 184636760 bef8a9... addobs {pressure_hpa=835.9000244140625, longitude_deg=-97.32637023925781, elevation2_m=1523, launch_id=tugbk1boj3va, gps_elevation_m=1703, humidity_percent=55.63999938964844, unix_time_s=1637233629, latitude_deg=32.78647232055664, flags=217, temperature_c=6.630000114440918}
2021-11-18T11:07:01.500 184636742 c9c469... addobs {pressure_hpa=839.2999877929688, longitude_deg=-97.32598876953125, elevation2_m=1490, launch_id=tugbk1boj3va, gps_elevation_m=1672, humidity_percent=58.97999954223633, unix_time_s=1637233620, latitude_deg=32.78709411621094, flags=217, temperature_c=6.369999885559082}
2021-11-18T11:06:49.500 184636718 248e13... addobs {pressure_hpa=842.5999755859375, longitude_deg=-97.32550811767578, elevation2_m=1458, launch_id=tugbk1boj3va, gps_elevation_m=1640, humidity_percent=53.560001373291016, unix_time_s=1637233608, latitude_deg=32.78779983520508, flags=217, temperature_c=6.260000228881836}
2021-11-18T11:06:40.500 184636700 35a990... websetlaunch {surf_pressure=1008, launch_id=tugbk1boj3va, unix_time=1637233599, device_type=Cybaart Kanda v0.3.1, miner=ascensiondal, wxcondition=Unknown}
2021-11-17T23:52:11.500 184555811 f3631b... addobs {pressure_hpa=280.5, longitude_deg=-96.83210754394531, elevation2_m=9817, launch_id=yglsqhbocku2, gps_elevation_m=9951, humidity_percent=13.819999694824219, unix_time_s=1637193130, latitude_deg=33.01482391357422, flags=217, temperature_c=-41.91999816894531}
2021-11-17T23:51:11.500 184555691 5e94ee... addobs {pressure_hpa=288.29998779296875, longitude_deg=-96.84573364257812, elevation2_m=9631, launch_id=yglsqhbocku2, gps_elevation_m=9765, humidity_percent=10.220000267028809, unix_time_s=1637193070, latitude_deg=33.00981140136719, flags=201, temperature_c=-40.61000061035156}
2021-11-17T23:50:11.500 184555571 29db47... addobs {pressure_hpa=296.20001220703125, longitude_deg=-96.85909271240234, elevation2_m=9446, launch_id=yglsqhbocku2, gps_elevation_m=9577, humidity_percent=9.670000076293945, unix_time_s=1637193010, latitude_deg=33.00468444824219, flags=201, temperature_c=-39.119998931884766}
2021-11-17T23:49:12.000 184555452 35e7b2... addobs {pressure_hpa=304.3999938964844, longitude_deg=-96.87236022949219, elevation2_m=9258, launch_id=yglsqhbocku2, gps_elevation_m=9391, humidity_percent=9.020000457763672, unix_time_s=1637192950, latitude_deg=32.999420166015625, flags=201, temperature_c=-37.470001220703125}
2021-11-17T23:48:11.500 184555331 6e0a20... addobs {pressure_hpa=312.6000061035156, longitude_deg=-96.88621520996094, elevation2_m=9071, launch_id=yglsqhbocku2, gps_elevation_m=9210, humidity_percent=9.100000381469727, unix_time_s=1637192890, latitude_deg=32.994510650634766, flags=201, temperature_c=-36.040000915527344}
2021-11-17T23:47:11.500 184555211 a8bb1f... addobs {pressure_hpa=320.79998779296875, longitude_deg=-96.90016174316406, elevation2_m=8892, launch_id=yglsqhbocku2, gps_elevation_m=9023, humidity_percent=9.479999542236328, unix_time_s=1637192830, latitude_deg=32.98966979980469, flags=201, temperature_c=-34.619998931884766}
2021-11-17T23:46:11.500 184555091 1f7772... addobs {pressure_hpa=329, longitude_deg=-96.91378021240234, elevation2_m=8715, launch_id=yglsqhbocku2, gps_elevation_m=8848, humidity_percent=9.539999961853027, unix_time_s=1637192770, latitude_deg=32.98491287231445, flags=201, temperature_c=-33.54999923706055}
2021-11-17T23:45:11.500 184554971 fc59b7... addobs {pressure_hpa=337.79998779296875, longitude_deg=-96.92660522460938, elevation2_m=8528, launch_id=yglsqhbocku2, gps_elevation_m=8666, humidity_percent=9.4399995803833, unix_time_s=1637192710, latitude_deg=32.97940444946289, flags=201, temperature_c=-32.27000045776367}
2021-11-17T23:44:11.500 184554851 88a3e8... addobs {pressure_hpa=346.79998779296875, longitude_deg=-96.93938446044922, elevation2_m=8343, launch_id=yglsqhbocku2, gps_elevation_m=8479, humidity_percent=9.520000457763672, unix_time_s=1637192650, latitude_deg=32.9727783203125, flags=201, temperature_c=-31}
2021-11-17T23:43:11.500 184554731 6ba2e6... addobs {pressure_hpa=356.1000061035156, longitude_deg=-96.9517593383789, elevation2_m=8154, launch_id=yglsqhbocku2, gps_elevation_m=8287, humidity_percent=9.40999984741211, unix_time_s=1637192590, latitude_deg=32.96532440185547, flags=201, temperature_c=-29.43000030517578}
2021-11-17T23:42:11.500 184554611 572fad... addobs {pressure_hpa=365.3999938964844, longitude_deg=-96.9632797241211, elevation2_m=7969, launch_id=yglsqhbocku2, gps_elevation_m=8104, humidity_percent=8.90999984741211, unix_time_s=1637192530, latitude_deg=32.957244873046875, flags=201, temperature_c=-28.350000381469727}
2021-11-17T23:41:11.500 184554491 50b4a1... addobs {pressure_hpa=375.79998779296875, longitude_deg=-96.9745101928711, elevation2_m=7766, launch_id=yglsqhbocku2, gps_elevation_m=7903, humidity_percent=8.859999656677246, unix_time_s=1637192470, latitude_deg=32.949466705322266, flags=201, temperature_c=-26.540000915527344}
2021-11-17T23:40:11.000 184554370 b83b6b... addobs {pressure_hpa=386.6000061035156, longitude_deg=-96.98583221435547, elevation2_m=7560, launch_id=yglsqhbocku2, gps_elevation_m=7695, humidity_percent=9.869999885559082, unix_time_s=1637192410, latitude_deg=32.94283676147461, flags=201, temperature_c=-25.43000030517578}
2021-11-17T23:39:11.500 184554251 c6984f... addobs {pressure_hpa=397.3999938964844, longitude_deg=-96.99639129638672, elevation2_m=7359, launch_id=yglsqhbocku2, gps_elevation_m=7498, humidity_percent=12.819999694824219, unix_time_s=1637192350, latitude_deg=32.937217712402344, flags=201, temperature_c=-24.719999313354492}
2021-11-17T23:38:11.000 184554130 91394d... addobs {pressure_hpa=408.70001220703125, longitude_deg=-97.00640869140625, elevation2_m=7156, launch_id=yglsqhbocku2, gps_elevation_m=7296, humidity_percent=12.739999771118164, unix_time_s=1637192290, latitude_deg=32.93217086791992, flags=201, temperature_c=-23.229999542236328}
2021-11-17T23:37:11.000 184554010 9fd217... addobs {pressure_hpa=419.70001220703125, longitude_deg=-97.01693725585938, elevation2_m=6960, launch_id=yglsqhbocku2, gps_elevation_m=7098, humidity_percent=11.789999961853027, unix_time_s=1637192230, latitude_deg=32.928409576416016, flags=201, temperature_c=-21.479999542236328}
2021-11-17T23:36:11.000 184553890 05cc22... addobs {pressure_hpa=431.3999938964844, longitude_deg=-97.02709197998047, elevation2_m=6756, launch_id=yglsqhbocku2, gps_elevation_m=6900, humidity_percent=10.59000015258789, unix_time_s=1637192170, latitude_deg=32.92448043823242, flags=201, temperature_c=-19.65999984741211}
2021-11-17T23:35:11.000 184553770 b087ff... addobs {pressure_hpa=442.29998779296875, longitude_deg=-97.03636932373047, elevation2_m=6570, launch_id=yglsqhbocku2, gps_elevation_m=6712, humidity_percent=10.020000457763672, unix_time_s=1637192110, latitude_deg=32.920345306396484, flags=201, temperature_c=-18.200000762939453}
2021-11-17T23:34:11.000 184553650 bbd21b... addobs {pressure_hpa=453.1000061035156, longitude_deg=-97.04582214355469, elevation2_m=6388, launch_id=yglsqhbocku2, gps_elevation_m=6530, humidity_percent=9.15999984741211, unix_time_s=1637192050, latitude_deg=32.916263580322266, flags=201, temperature_c=-16.670000076293945}
2021-11-17T23:33:11.000 184553530 5944fc... addobs {pressure_hpa=464.6000061035156, longitude_deg=-97.05583190917969, elevation2_m=6199, launch_id=yglsqhbocku2, gps_elevation_m=6342, humidity_percent=8.039999961853027, unix_time_s=1637191990, latitude_deg=32.91175842285156, flags=201, temperature_c=-15.449999809265137}
2021-11-17T23:32:10.500 184553409 215366... addobs {pressure_hpa=476.70001220703125, longitude_deg=-97.06732177734375, elevation2_m=6005, launch_id=yglsqhbocku2, gps_elevation_m=6150, humidity_percent=8.0600004196167, unix_time_s=1637191930, latitude_deg=32.90742874145508, flags=201, temperature_c=-13.989999771118164}
2021-11-17T23:31:11.000 184553290 0e0a8f... addobs {pressure_hpa=489.1000061035156, longitude_deg=-97.07882690429688, elevation2_m=5808, launch_id=yglsqhbocku2, gps_elevation_m=5953, humidity_percent=7.730000019073486, unix_time_s=1637191870, latitude_deg=32.902931213378906, flags=201, temperature_c=-12.229999542236328}
2021-11-17T23:30:12.000 184553172 5ef2c7... addobs {pressure_hpa=502.29998779296875, longitude_deg=-97.0905532836914, elevation2_m=5604, launch_id=yglsqhbocku2, gps_elevation_m=5748, humidity_percent=7.289999961853027, unix_time_s=1637191811, latitude_deg=32.89863967895508, flags=201, temperature_c=-10.3100004196167}
2021-11-17T23:29:12.000 184553052 41640f... addobs {pressure_hpa=516.5, longitude_deg=-97.10225677490234, elevation2_m=5388, launch_id=yglsqhbocku2, gps_elevation_m=5547, humidity_percent=6.829999923706055, unix_time_s=1637191751, latitude_deg=32.89454650878906, flags=201, temperature_c=-8.3100004196167}
2021-11-17T23:28:12.000 184552932 e7e22b... addobs {pressure_hpa=530, longitude_deg=-97.1139907836914, elevation2_m=5187, launch_id=yglsqhbocku2, gps_elevation_m=5345, humidity_percent=7.090000152587891, unix_time_s=1637191691, latitude_deg=32.890663146972656, flags=201, temperature_c=-6.820000171661377}
2021-11-17T23:27:12.000 184552812 cc4422... addobs {pressure_hpa=543, longitude_deg=-97.12599182128906, elevation2_m=4997, launch_id=yglsqhbocku2, gps_elevation_m=5156, humidity_percent=8, unix_time_s=1637191631, latitude_deg=32.88703918457031, flags=201, temperature_c=-5.590000152587891}
2021-11-17T23:26:12.000 184552692 b33813... addobs {pressure_hpa=555.5999755859375, longitude_deg=-97.13691711425781, elevation2_m=4817, launch_id=yglsqhbocku2, gps_elevation_m=4977, humidity_percent=10.15999984741211, unix_time_s=1637191571, latitude_deg=32.88275909423828, flags=201, temperature_c=-5.099999904632568}
2021-11-17T23:25:12.000 184552572 7c0e95... addobs {pressure_hpa=568.4000244140625, longitude_deg=-97.14695739746094, elevation2_m=4638, launch_id=yglsqhbocku2, gps_elevation_m=4795, humidity_percent=17.719999313354492, unix_time_s=1637191511, latitude_deg=32.87834930419922, flags=201, temperature_c=-5.78000020980835}
2021-11-17T23:24:12.000 184552452 cc5d2c... addobs {pressure_hpa=584.5, longitude_deg=-97.15644836425781, elevation2_m=4418, launch_id=yglsqhbocku2, gps_elevation_m=4577, humidity_percent=32.5, unix_time_s=1637191450, latitude_deg=32.87502670288086, flags=201, temperature_c=-4.860000133514404}
2021-11-17T23:23:11.500 184552331 106969... addobs {pressure_hpa=599.5, longitude_deg=-97.16736602783203, elevation2_m=4218, launch_id=yglsqhbocku2, gps_elevation_m=4377, humidity_percent=49.70000076293945, unix_time_s=1637191390, latitude_deg=32.87329864501953, flags=201, temperature_c=-3.4200000762939453}
2021-11-17T23:22:11.500 184552211 620248... addobs {pressure_hpa=614.2000122070312, longitude_deg=-97.17882537841797, elevation2_m=4025, launch_id=yglsqhbocku2, gps_elevation_m=4183, humidity_percent=45.58000183105469, unix_time_s=1637191330, latitude_deg=32.87183380126953, flags=201, temperature_c=-1.7100000381469727}
2021-11-17T23:21:11.500 184552091 189dd3... addobs {pressure_hpa=628.5999755859375, longitude_deg=-97.19002532958984, elevation2_m=3840, launch_id=yglsqhbocku2, gps_elevation_m=4002, humidity_percent=43.470001220703125, unix_time_s=1637191270, latitude_deg=32.87003707885742, flags=201, temperature_c=0.10999999940395355}
2021-11-17T23:20:13.500 184551975 98b714... addobs {pressure_hpa=642.9000244140625, longitude_deg=-97.20030975341797, elevation2_m=3659, launch_id=yglsqhbocku2, gps_elevation_m=3821, humidity_percent=42.06999969482422, unix_time_s=1637191212, latitude_deg=32.867401123046875, flags=201, temperature_c=1.3200000524520874}
2021-11-17T23:19:13.500 184551855 a316c1... addobs {pressure_hpa=656.2999877929688, longitude_deg=-97.20918273925781, elevation2_m=3491, launch_id=yglsqhbocku2, gps_elevation_m=3657, humidity_percent=39.11000061035156, unix_time_s=1637191152, latitude_deg=32.86457061767578, flags=201, temperature_c=2.680000066757202}
2021-11-17T23:18:13.500 184551735 b0e6a1... addobs {pressure_hpa=669.9000244140625, longitude_deg=-97.21794128417969, elevation2_m=3324, launch_id=yglsqhbocku2, gps_elevation_m=3489, humidity_percent=37.34000015258789, unix_time_s=1637191092, latitude_deg=32.861839294433594, flags=201, temperature_c=4.139999866485596}
2021-11-17T23:17:12.500 184551613 c916b9... addobs {pressure_hpa=684.4000244140625, longitude_deg=-97.22651672363281, elevation2_m=3150, launch_id=yglsqhbocku2, gps_elevation_m=3317, humidity_percent=34.810001373291016, unix_time_s=1637191031, latitude_deg=32.859249114990234, flags=201, temperature_c=5.679999828338623}
2021-11-17T23:16:12.500 184551493 95ef5c... addobs {pressure_hpa=699.0999755859375, longitude_deg=-97.23509216308594, elevation2_m=2974, launch_id=yglsqhbocku2, gps_elevation_m=3143, humidity_percent=31.799999237060547, unix_time_s=1637190971, latitude_deg=32.85673141479492, flags=201, temperature_c=7.300000190734863}
2021-11-17T23:15:43.500 184551435 a644d9... addobs {pressure_hpa=706.5999755859375, longitude_deg=-97.23932647705078, elevation2_m=2887, launch_id=yglsqhbocku2, gps_elevation_m=3055, humidity_percent=29.829999923706055, unix_time_s=1637190942, latitude_deg=32.85533142089844, flags=201, temperature_c=8.130000114440918}
2021-11-17T23:15:13.500 184551375 799bea... addobs {pressure_hpa=714.7000122070312, longitude_deg=-97.24325561523438, elevation2_m=2792, launch_id=yglsqhbocku2, gps_elevation_m=2960, humidity_percent=28.639999389648438, unix_time_s=1637190912, latitude_deg=32.85365676879883, flags=201, temperature_c=8.630000114440918}
2021-11-17T23:14:43.500 184551315 e95005... addobs {pressure_hpa=723.2999877929688, longitude_deg=-97.24698638916016, elevation2_m=2693, launch_id=yglsqhbocku2, gps_elevation_m=2867, humidity_percent=28.290000915527344, unix_time_s=1637190882, latitude_deg=32.85172653198242, flags=201, temperature_c=9.510000228881836}
2021-11-17T23:13:43.000 184551194 22fdff... addobs {pressure_hpa=739.0999755859375, longitude_deg=-97.2536849975586, elevation2_m=2513, launch_id=yglsqhbocku2, gps_elevation_m=2687, humidity_percent=27.639999389648438, unix_time_s=1637190822, latitude_deg=32.847206115722656, flags=201, temperature_c=10.789999961853027}
2021-11-17T23:13:12.500 184551133 e2610f... addobs {pressure_hpa=746.9000244140625, longitude_deg=-97.2571029663086, elevation2_m=2425, launch_id=yglsqhbocku2, gps_elevation_m=2598, humidity_percent=27.309999465942383, unix_time_s=1637190792, latitude_deg=32.84512710571289, flags=201, temperature_c=11.300000190734863}
2021-11-17T23:12:42.500 184551073 fbc9d7... addobs {pressure_hpa=754.7000122070312, longitude_deg=-97.26050567626953, elevation2_m=2339, launch_id=yglsqhbocku2, gps_elevation_m=2517, humidity_percent=27.139999389648438, unix_time_s=1637190762, latitude_deg=32.843143463134766, flags=201, temperature_c=11.75}
2021-11-17T23:12:12.500 184551013 ed2e13... addobs {pressure_hpa=762.2999877929688, longitude_deg=-97.26395416259766, elevation2_m=2254, launch_id=yglsqhbocku2, gps_elevation_m=2431, humidity_percent=27.719999313354492, unix_time_s=1637190732, latitude_deg=32.84121322631836, flags=201, temperature_c=12}
2021-11-17T23:11:43.000 184550954 378261... addobs {pressure_hpa=770.0999755859375, longitude_deg=-97.26744079589844, elevation2_m=2169, launch_id=yglsqhbocku2, gps_elevation_m=2346, humidity_percent=29.739999771118164, unix_time_s=1637190702, latitude_deg=32.83933639526367, flags=201, temperature_c=12.149999618530273}
2021-11-17T23:11:12.500 184550893 9c5411... addobs {pressure_hpa=778.2000122070312, longitude_deg=-97.27620697021484, elevation2_m=2082, launch_id=yglsqhbocku2, gps_elevation_m=148, humidity_percent=40.630001068115234, unix_time_s=1637190671, latitude_deg=32.84676742553711, flags=193, temperature_c=11.760000228881836}
2021-11-17T23:10:42.500 184550833 007de5... addobs {pressure_hpa=787.9000244140625, longitude_deg=-97.27796936035156, elevation2_m=1977, launch_id=yglsqhbocku2, gps_elevation_m=147, humidity_percent=65.62000274658203, unix_time_s=1637190641, latitude_deg=32.84377670288086, flags=193, temperature_c=11.479999542236328}
2021-11-17T23:10:13.000 184550774 a12f49... addobs {pressure_hpa=798.4000244140625, longitude_deg=-97.27875518798828, elevation2_m=1867, launch_id=yglsqhbocku2, gps_elevation_m=148, humidity_percent=75.44999694824219, unix_time_s=1637190611, latitude_deg=32.8404655456543, flags=193, temperature_c=12.010000228881836}
2021-11-17T23:10:04.000 184550756 03c082... addobs {pressure_hpa=802.2000122070312, longitude_deg=-97.27871704101562, elevation2_m=1826, launch_id=yglsqhbocku2, gps_elevation_m=148, humidity_percent=77.33000183105469, unix_time_s=1637190602, latitude_deg=32.839515686035156, flags=193, temperature_c=12.1899995803833}
2021-11-17T23:09:51.500 184550731 48ef26... addobs {pressure_hpa=805.5999755859375, longitude_deg=-97.27874755859375, elevation2_m=1790, launch_id=yglsqhbocku2, gps_elevation_m=148, humidity_percent=76.62999725341797, unix_time_s=1637190590, latitude_deg=32.83851623535156, flags=193, temperature_c=12.579999923706055}
2021-11-17T23:09:42.500 184550713 ebfa48... addobs {pressure_hpa=809.5999755859375, longitude_deg=-97.27875518798828, elevation2_m=1749, launch_id=yglsqhbocku2, gps_elevation_m=148, humidity_percent=76.30000305175781, unix_time_s=1637190581, latitude_deg=32.837501525878906, flags=193, temperature_c=12.899999618530273}
2021-11-17T23:09:34.000 184550696 7664e3... addobs {pressure_hpa=813.2000122070312, longitude_deg=-97.27884674072266, elevation2_m=1711, launch_id=yglsqhbocku2, gps_elevation_m=148, humidity_percent=75.5999984741211, unix_time_s=1637190572, latitude_deg=32.83644485473633, flags=193, temperature_c=13.0600004196167}
2021-11-17T23:09:22.000 184550672 aa3d27... addobs {pressure_hpa=816.9000244140625, longitude_deg=-97.27885437011719, elevation2_m=1673, launch_id=yglsqhbocku2, gps_elevation_m=148, humidity_percent=74.37000274658203, unix_time_s=1637190560, latitude_deg=32.83534240722656, flags=193, temperature_c=13.369999885559082}
2021-11-17T23:09:12.500 184550653 95616e... addobs {pressure_hpa=820.7999877929688, longitude_deg=-97.27902221679688, elevation2_m=1633, launch_id=yglsqhbocku2, gps_elevation_m=148, humidity_percent=73.08000183105469, unix_time_s=1637190551, latitude_deg=32.834373474121094, flags=193, temperature_c=13.75}
2021-11-17T23:09:00.500 184550629 6ac648... addobs {pressure_hpa=824.7000122070312, longitude_deg=-97.27912902832031, elevation2_m=1593, launch_id=yglsqhbocku2, gps_elevation_m=149, humidity_percent=71.94000244140625, unix_time_s=1637190539, latitude_deg=32.83349609375, flags=193, temperature_c=14.119999885559082}
2021-11-17T23:08:51.500 184550611 e3549b... addobs {pressure_hpa=828.5, longitude_deg=-97.27922821044922, elevation2_m=1554, launch_id=yglsqhbocku2, gps_elevation_m=149, humidity_percent=70.91000366210938, unix_time_s=1637190530, latitude_deg=32.83244323730469, flags=193, temperature_c=14.420000076293945}
2021-11-17T23:08:42.500 184550593 b46ac8... addobs {pressure_hpa=832, longitude_deg=-97.279296875, elevation2_m=1518, launch_id=yglsqhbocku2, gps_elevation_m=149, humidity_percent=69.66000366210938, unix_time_s=1637190521, latitude_deg=32.831581115722656, flags=193, temperature_c=14.84000015258789}
2021-11-17T23:08:33.500 184550575 a7607f... addobs {pressure_hpa=835.7999877929688, longitude_deg=-97.2794418334961, elevation2_m=1479, launch_id=yglsqhbocku2, gps_elevation_m=150, humidity_percent=68.72000122070312, unix_time_s=1637190512, latitude_deg=32.83058166503906, flags=193, temperature_c=15.0600004196167}
2021-11-17T23:08:22.000 184550552 cdb80d... addobs {pressure_hpa=839.7999877929688, longitude_deg=-97.27953338623047, elevation2_m=1438, launch_id=yglsqhbocku2, gps_elevation_m=150, humidity_percent=67.27999877929688, unix_time_s=1637190500, latitude_deg=32.82966232299805, flags=193, temperature_c=15.479999542236328}
2021-11-17T23:08:12.500 184550533 ac17a7... addobs {pressure_hpa=843.7000122070312, longitude_deg=-97.27967834472656, elevation2_m=1399, launch_id=yglsqhbocku2, gps_elevation_m=150, humidity_percent=65.81999969482422, unix_time_s=1637190491, latitude_deg=32.82880401611328, flags=193, temperature_c=15.9399995803833}
2021-11-17T23:08:00.500 184550509 6844d7... addobs {pressure_hpa=847.5999755859375, longitude_deg=0, elevation2_m=1360, launch_id=yglsqhbocku2, gps_elevation_m=0, humidity_percent=64.37000274658203, unix_time_s=1637190479, latitude_deg=0, flags=193, temperature_c=16.309999465942383}
2021-11-17T23:07:52.000 184550492 e5f63f... addobs {pressure_hpa=850.7999877929688, longitude_deg=-97.12907409667969, elevation2_m=1328, launch_id=yglsqhbocku2, gps_elevation_m=0, humidity_percent=63.529998779296875, unix_time_s=1637190470, latitude_deg=32.8588981628418, flags=193, temperature_c=16.540000915527344}
2021-11-17T23:07:42.500 184550473 4c4b93... addobs {pressure_hpa=854.0999755859375, longitude_deg=-97.15662384033203, elevation2_m=1294, launch_id=yglsqhbocku2, gps_elevation_m=0, humidity_percent=62.43000030517578, unix_time_s=1637190461, latitude_deg=32.80352020263672, flags=193, temperature_c=16.829999923706055}
2021-11-17T23:07:34.000 184550456 a20fac... addobs {pressure_hpa=857.2000122070312, longitude_deg=-97.166748046875, elevation2_m=1263, launch_id=yglsqhbocku2, gps_elevation_m=0, humidity_percent=61.43000030517578, unix_time_s=1637190452, latitude_deg=32.866416931152344, flags=193, temperature_c=17}
2021-11-17T23:07:22.000 184550432 046e48... addobs {pressure_hpa=860.0999755859375, longitude_deg=-97.29300689697266, elevation2_m=1234, launch_id=yglsqhbocku2, gps_elevation_m=0, humidity_percent=61.2599983215332, unix_time_s=1637190440, latitude_deg=32.81163024902344, flags=193, temperature_c=17.06999969482422}
2021-11-17T23:07:13.000 184550414 c75a08... addobs {pressure_hpa=863.0999755859375, longitude_deg=-97.08650207519531, elevation2_m=1205, launch_id=yglsqhbocku2, gps_elevation_m=0, humidity_percent=60.619998931884766, unix_time_s=1637190431, latitude_deg=32.860511779785156, flags=193, temperature_c=17.139999389648438}
2021-11-17T23:07:00.500 184550389 efd2b6... addobs {pressure_hpa=865.9000244140625, longitude_deg=-97.2567138671875, elevation2_m=1177, launch_id=yglsqhbocku2, gps_elevation_m=0, humidity_percent=60.369998931884766, unix_time_s=1637190419, latitude_deg=32.82593536376953, flags=193, temperature_c=17.139999389648438}
2021-11-17T23:06:51.500 184550371 33ef24... addobs {pressure_hpa=868.7999877929688, longitude_deg=0, elevation2_m=1148, launch_id=yglsqhbocku2, gps_elevation_m=0, humidity_percent=59.93000030517578, unix_time_s=1637190410, latitude_deg=0, flags=193, temperature_c=17.260000228881836}
2021-11-17T23:06:42.500 184550353 878ceb... addobs {pressure_hpa=871.7000122070312, longitude_deg=0, elevation2_m=1120, launch_id=yglsqhbocku2, gps_elevation_m=0, humidity_percent=59.220001220703125, unix_time_s=1637190401, latitude_deg=0, flags=193, temperature_c=17.239999771118164}
2021-11-17T23:06:33.500 184550335 eed0b3... addobs {pressure_hpa=875.2000122070312, longitude_deg=0, elevation2_m=1085, launch_id=yglsqhbocku2, gps_elevation_m=0, humidity_percent=56.459999084472656, unix_time_s=1637190392, latitude_deg=0, flags=193, temperature_c=17.3700008392334}
2021-11-17T23:06:21.500 184550311 3ceab4... addobs {pressure_hpa=878.4000244140625, longitude_deg=-97.28752899169922, elevation2_m=1054, launch_id=yglsqhbocku2, gps_elevation_m=0, humidity_percent=54.90999984741211, unix_time_s=1637190380, latitude_deg=32.85679626464844, flags=193, temperature_c=17.350000381469727}
2021-11-17T23:06:13.000 184550294 db447b... addobs {pressure_hpa=881.5999755859375, longitude_deg=-97.25169372558594, elevation2_m=1023, launch_id=yglsqhbocku2, gps_elevation_m=0, humidity_percent=53.09000015258789, unix_time_s=1637190371, latitude_deg=32.82613754272461, flags=193, temperature_c=17.3700008392334}
2021-11-17T23:06:01.000 184550270 20eb11... addobs {pressure_hpa=884.9000244140625, longitude_deg=0, elevation2_m=991, launch_id=yglsqhbocku2, gps_elevation_m=0, humidity_percent=50.560001373291016, unix_time_s=1637190359, latitude_deg=0, flags=193, temperature_c=17.450000762939453}
2021-11-17T23:05:52.000 184550252 dc0bbc... addobs {pressure_hpa=888.2999877929688, longitude_deg=-97.25960540771484, elevation2_m=958, launch_id=yglsqhbocku2, gps_elevation_m=0, humidity_percent=50.060001373291016, unix_time_s=1637190350, latitude_deg=32.78749084472656, flags=193, temperature_c=17.56999969482422}
2021-11-17T23:05:42.500 184550233 eed8e5... addobs {pressure_hpa=891.5999755859375, longitude_deg=0, elevation2_m=926, launch_id=yglsqhbocku2, gps_elevation_m=0, humidity_percent=49.970001220703125, unix_time_s=1637190341, latitude_deg=0, flags=209, temperature_c=17.6200008392334}
2021-11-17T23:05:33.500 184550215 9139da... addobs {pressure_hpa=894.9000244140625, longitude_deg=0, elevation2_m=895, launch_id=yglsqhbocku2, gps_elevation_m=0, humidity_percent=49.68000030517578, unix_time_s=1637190332, latitude_deg=0, flags=193, temperature_c=17.540000915527344}
2021-11-17T23:05:21.500 184550191 c5c85b... addobs {pressure_hpa=899.2999877929688, longitude_deg=-97.23723602294922, elevation2_m=852, launch_id=yglsqhbocku2, gps_elevation_m=0, humidity_percent=49.540000915527344, unix_time_s=1637190320, latitude_deg=32.79994583129883, flags=193, temperature_c=17.610000610351562}
2021-11-17T23:05:18.500 184550185 db76e4... addobs {pressure_hpa=901.4000244140625, longitude_deg=-97.06552124023438, elevation2_m=833, launch_id=yglsqhbocku2, gps_elevation_m=0, humidity_percent=49.400001525878906, unix_time_s=1637190317, latitude_deg=32.8444709777832, flags=193, temperature_c=17.600000381469727}
2021-11-17T23:05:13.000 184550174 4e02f1... addobs {pressure_hpa=903.2999877929688, longitude_deg=-97.19029998779297, elevation2_m=814, launch_id=yglsqhbocku2, gps_elevation_m=0, humidity_percent=49.220001220703125, unix_time_s=1637190311, latitude_deg=32.83669662475586, flags=209, temperature_c=17.65999984741211}
2021-11-17T23:05:06.500 184550161 7e13a9... addobs {pressure_hpa=905.0999755859375, longitude_deg=0, elevation2_m=797, launch_id=yglsqhbocku2, gps_elevation_m=0, humidity_percent=49.220001220703125, unix_time_s=1637190305, latitude_deg=0, flags=193, temperature_c=17.65999984741211}
2021-11-17T23:05:00.500 184550149 14f47f... addobs {pressure_hpa=906.7999877929688, longitude_deg=-97.22760009765625, elevation2_m=781, launch_id=yglsqhbocku2, gps_elevation_m=0, humidity_percent=49.290000915527344, unix_time_s=1637190299, latitude_deg=32.816734313964844, flags=193, temperature_c=17.610000610351562}
2021-11-17T23:04:57.500 184550143 cb50e9... addobs {pressure_hpa=908.5, longitude_deg=-97.12486267089844, elevation2_m=766, launch_id=yglsqhbocku2, gps_elevation_m=0, humidity_percent=49.369998931884766, unix_time_s=1637190296, latitude_deg=32.779354095458984, flags=193, temperature_c=17.56999969482422}
2021-11-17T23:04:51.500 184550131 21c451... addobs {pressure_hpa=910.0999755859375, longitude_deg=-97.28330993652344, elevation2_m=751, launch_id=yglsqhbocku2, gps_elevation_m=0, humidity_percent=49.36000061035156, unix_time_s=1637190290, latitude_deg=32.796630859375, flags=193, temperature_c=17.3700008392334}
2021-11-17T23:04:48.500 184550125 4613de... addobs {pressure_hpa=911.7000122070312, longitude_deg=-97.28804016113281, elevation2_m=735, launch_id=yglsqhbocku2, gps_elevation_m=0, humidity_percent=48.939998626708984, unix_time_s=1637190287, latitude_deg=32.88486862182617, flags=193, temperature_c=17.1200008392334}
2021-11-17T23:04:42.500 184550113 763678... addobs {pressure_hpa=913.5999755859375, longitude_deg=-97.26485443115234, elevation2_m=717, launch_id=yglsqhbocku2, gps_elevation_m=0, humidity_percent=47.27000045776367, unix_time_s=1637190281, latitude_deg=32.791194915771484, flags=209, temperature_c=16.889999389648438}
2021-11-17T23:04:36.500 184550101 ef4c2f... addobs {pressure_hpa=915.4000244140625, longitude_deg=-97.27222442626953, elevation2_m=701, launch_id=yglsqhbocku2, gps_elevation_m=0, humidity_percent=44.959999084472656, unix_time_s=1637190275, latitude_deg=32.86818313598633, flags=193, temperature_c=16.68000030517578}
2021-11-17T23:04:33.500 184550095 3bfe7e... addobs {pressure_hpa=917.5, longitude_deg=-97.27318572998047, elevation2_m=681, launch_id=yglsqhbocku2, gps_elevation_m=0, humidity_percent=41.70000076293945, unix_time_s=1637190272, latitude_deg=32.779693603515625, flags=193, temperature_c=16.6200008392334}
2021-11-17T23:04:27.500 184550083 0d9f62... addobs {pressure_hpa=919.7999877929688, longitude_deg=0, elevation2_m=659, launch_id=yglsqhbocku2, gps_elevation_m=0, humidity_percent=40.099998474121094, unix_time_s=1637190266, latitude_deg=0, flags=193, temperature_c=16.59000015258789}
2021-11-17T23:04:21.500 184550071 8866f3... addobs {pressure_hpa=921.9000244140625, longitude_deg=-97.2272720336914, elevation2_m=641, launch_id=yglsqhbocku2, gps_elevation_m=0, humidity_percent=39, unix_time_s=1637190260, latitude_deg=32.842445373535156, flags=193, temperature_c=16.68000030517578}
2021-11-17T23:04:18.500 184550065 e73235... addobs {pressure_hpa=924, longitude_deg=-97.23583221435547, elevation2_m=621, launch_id=yglsqhbocku2, gps_elevation_m=0, humidity_percent=38.15999984741211, unix_time_s=1637190257, latitude_deg=32.805965423583984, flags=193, temperature_c=16.829999923706055}
2021-11-17T23:04:12.500 184550053 383e37... addobs {pressure_hpa=926, longitude_deg=-97.22240447998047, elevation2_m=603, launch_id=yglsqhbocku2, gps_elevation_m=0, humidity_percent=38, unix_time_s=1637190251, latitude_deg=32.84080505371094, flags=209, temperature_c=16.93000030517578}
2021-11-17T23:04:06.500 184550041 f3da8a... addobs {pressure_hpa=927.9000244140625, longitude_deg=-97.24066162109375, elevation2_m=585, launch_id=yglsqhbocku2, gps_elevation_m=0, humidity_percent=37.79999923706055, unix_time_s=1637190245, latitude_deg=32.824737548828125, flags=193, temperature_c=17}
2021-11-17T23:04:00.500 184550029 777e12... addobs {pressure_hpa=929.5999755859375, longitude_deg=-97.30118560791016, elevation2_m=569, launch_id=yglsqhbocku2, gps_elevation_m=0, humidity_percent=37.41999816894531, unix_time_s=1637190239, latitude_deg=32.87485885620117, flags=193, temperature_c=17.18000030517578}
2021-11-17T23:03:57.500 184550023 d98fa2... addobs {pressure_hpa=931.4000244140625, longitude_deg=-97.32556915283203, elevation2_m=553, launch_id=yglsqhbocku2, gps_elevation_m=0, humidity_percent=37.22999954223633, unix_time_s=1637190236, latitude_deg=32.857601165771484, flags=193, temperature_c=17.309999465942383}
2021-11-17T23:03:51.500 184550011 15d670... addobs {pressure_hpa=933.0999755859375, longitude_deg=-97.27395629882812, elevation2_m=537, launch_id=yglsqhbocku2, gps_elevation_m=0, humidity_percent=36.849998474121094, unix_time_s=1637190230, latitude_deg=32.78828430175781, flags=193, temperature_c=17.540000915527344}
2021-11-17T23:03:46.000 184550000 c63bcd... addobs {pressure_hpa=934.9000244140625, longitude_deg=0, elevation2_m=520, launch_id=yglsqhbocku2, gps_elevation_m=0, humidity_percent=36.86000061035156, unix_time_s=1637190224, latitude_deg=0, flags=193, temperature_c=17.600000381469727}
2021-11-17T23:03:42.500 184549993 38d6d7... addobs {pressure_hpa=936.5999755859375, longitude_deg=0, elevation2_m=505, launch_id=yglsqhbocku2, gps_elevation_m=0, humidity_percent=36.72999954223633, unix_time_s=1637190221, latitude_deg=0, flags=209, temperature_c=17.729999542236328}
2021-11-17T23:03:36.500 184549981 7391e6... addobs {pressure_hpa=938.2000122070312, longitude_deg=0, elevation2_m=490, launch_id=yglsqhbocku2, gps_elevation_m=0, humidity_percent=36.58000183105469, unix_time_s=1637190215, latitude_deg=0, flags=193, temperature_c=17.850000381469727}
2021-11-17T23:03:33.500 184549975 2c2ead... addobs {pressure_hpa=939.9000244140625, longitude_deg=-97.23246002197266, elevation2_m=475, launch_id=yglsqhbocku2, gps_elevation_m=0, humidity_percent=36.52000045776367, unix_time_s=1637190212, latitude_deg=32.77365493774414, flags=193, temperature_c=17.84000015258789}
2021-11-17T23:03:27.500 184549963 518868... addobs {pressure_hpa=941.5, longitude_deg=0, elevation2_m=460, launch_id=yglsqhbocku2, gps_elevation_m=0, humidity_percent=36.349998474121094, unix_time_s=1637190206, latitude_deg=0, flags=193, temperature_c=17.950000762939453}
2021-11-17T23:03:21.500 184549951 fa8ad6... addobs {pressure_hpa=943.2000122070312, longitude_deg=-97.3417739868164, elevation2_m=445, launch_id=yglsqhbocku2, gps_elevation_m=0, humidity_percent=36.209999084472656, unix_time_s=1637190200, latitude_deg=32.829532623291016, flags=193, temperature_c=17.959999084472656}
2021-11-17T23:03:15.500 184549939 75425e... addobs {pressure_hpa=944.7999877929688, longitude_deg=-97.20958709716797, elevation2_m=430, launch_id=yglsqhbocku2, gps_elevation_m=0, humidity_percent=35.36000061035156, unix_time_s=1637190194, latitude_deg=32.81439208984375, flags=193, temperature_c=18.170000076293945}
2021-11-17T23:03:12.500 184549933 bc8a07... addobs {pressure_hpa=946.7000122070312, longitude_deg=-97.21397399902344, elevation2_m=413, launch_id=yglsqhbocku2, gps_elevation_m=0, humidity_percent=35.59000015258789, unix_time_s=1637190191, latitude_deg=32.829002380371094, flags=209, temperature_c=18.239999771118164}
2021-11-17T23:03:06.500 184549921 baeb93... addobs {pressure_hpa=948.7000122070312, longitude_deg=-97.18651580810547, elevation2_m=395, launch_id=yglsqhbocku2, gps_elevation_m=0, humidity_percent=35.150001525878906, unix_time_s=1637190185, latitude_deg=32.81211471557617, flags=193, temperature_c=18.510000228881836}
2021-11-17T23:03:00.500 184549909 dd6baf... addobs {pressure_hpa=950.7000122070312, longitude_deg=-97.19377899169922, elevation2_m=376, launch_id=yglsqhbocku2, gps_elevation_m=0, humidity_percent=35.060001373291016, unix_time_s=1637190179, latitude_deg=32.82572555541992, flags=193, temperature_c=18.510000228881836}
2021-11-17T23:02:57.500 184549903 d36698... addobs {pressure_hpa=952.2999877929688, longitude_deg=-97.27703857421875, elevation2_m=362, launch_id=yglsqhbocku2, gps_elevation_m=0, humidity_percent=34.7599983215332, unix_time_s=1637190176, latitude_deg=32.879180908203125, flags=193, temperature_c=18.700000762939453}
2021-11-17T23:02:51.500 184549891 94299b... addobs {pressure_hpa=954, longitude_deg=-97.2505874633789, elevation2_m=347, launch_id=yglsqhbocku2, gps_elevation_m=0, humidity_percent=34.619998931884766, unix_time_s=1637190170, latitude_deg=32.77344512939453, flags=193, temperature_c=18.790000915527344}
2021-11-17T23:02:45.500 184549879 e69787... addobs {pressure_hpa=955.9000244140625, longitude_deg=-97.30780792236328, elevation2_m=330, launch_id=yglsqhbocku2, gps_elevation_m=0, humidity_percent=34.36000061035156, unix_time_s=1637190164, latitude_deg=32.83744430541992, flags=193, temperature_c=19}
2021-11-17T23:02:42.500 184549873 feafea... addobs {pressure_hpa=957.7999877929688, longitude_deg=0, elevation2_m=313, launch_id=yglsqhbocku2, gps_elevation_m=0, humidity_percent=34.15999984741211, unix_time_s=1637190161, latitude_deg=0, flags=209, temperature_c=19.139999389648438}
2021-11-17T23:02:36.500 184549861 ef46e2... addobs {pressure_hpa=959.5, longitude_deg=-97.33075714111328, elevation2_m=297, launch_id=yglsqhbocku2, gps_elevation_m=0, humidity_percent=34.029998779296875, unix_time_s=1637190155, latitude_deg=32.86322021484375, flags=193, temperature_c=19.25}
2021-11-17T23:02:30.500 184549849 9d646a... addobs {pressure_hpa=961.4000244140625, longitude_deg=-97.31239318847656, elevation2_m=280, launch_id=yglsqhbocku2, gps_elevation_m=0, humidity_percent=33.90999984741211, unix_time_s=1637190149, latitude_deg=32.82282638549805, flags=193, temperature_c=19.309999465942383}
2021-11-17T23:02:27.500 184549843 48a874... addobs {pressure_hpa=963.4000244140625, longitude_deg=0, elevation2_m=263, launch_id=yglsqhbocku2, gps_elevation_m=0, humidity_percent=33.72999954223633, unix_time_s=1637190146, latitude_deg=0, flags=193, temperature_c=19.450000762939453}
2021-11-17T23:02:21.500 184549831 afd376... addobs {pressure_hpa=965.0999755859375, longitude_deg=-97.24236297607422, elevation2_m=247, launch_id=yglsqhbocku2, gps_elevation_m=0, humidity_percent=33.56999969482422, unix_time_s=1637190140, latitude_deg=32.826332092285156, flags=193, temperature_c=19.579999923706055}
2021-11-17T23:02:18.500 184549825 1ac0d5... addobs {pressure_hpa=967.2000122070312, longitude_deg=-97.28101348876953, elevation2_m=229, launch_id=yglsqhbocku2, gps_elevation_m=0, humidity_percent=33.310001373291016, unix_time_s=1637190137, latitude_deg=32.76646423339844, flags=193, temperature_c=19.770000457763672}
2021-11-17T23:02:12.500 184549813 f3a6a9... addobs {pressure_hpa=969, longitude_deg=0, elevation2_m=213, launch_id=yglsqhbocku2, gps_elevation_m=0, humidity_percent=33.02000045776367, unix_time_s=1637190131, latitude_deg=0, flags=209, temperature_c=19.850000381469727}
2021-11-17T23:02:06.500 184549801 aa481a... addobs {pressure_hpa=971.2000122070312, longitude_deg=-97.31703186035156, elevation2_m=193, launch_id=yglsqhbocku2, gps_elevation_m=0, humidity_percent=32.97999954223633, unix_time_s=1637190125, latitude_deg=32.8907356262207, flags=209, temperature_c=20.079999923706055}
2021-11-17T23:02:00.500 184549789 c9d7f2... addobs {pressure_hpa=973.7000122070312, longitude_deg=-97.32933807373047, elevation2_m=171, launch_id=yglsqhbocku2, gps_elevation_m=0, humidity_percent=32.93000030517578, unix_time_s=1637190119, latitude_deg=32.820587158203125, flags=209, temperature_c=20.229999542236328}
2021-11-17T23:01:57.500 184549783 d1824a... addobs {pressure_hpa=976.7000122070312, longitude_deg=-97.33438110351562, elevation2_m=144, launch_id=yglsqhbocku2, gps_elevation_m=0, humidity_percent=32.70000076293945, unix_time_s=1637190116, latitude_deg=32.832725524902344, flags=209, temperature_c=20.479999542236328}
2021-11-17T23:01:51.500 184549771 3f825d... addobs {pressure_hpa=979.7000122070312, longitude_deg=0, elevation2_m=118, launch_id=yglsqhbocku2, gps_elevation_m=0, humidity_percent=32.599998474121094, unix_time_s=1637190110, latitude_deg=0, flags=209, temperature_c=20.65999984741211}
2021-11-17T23:01:45.500 184549759 426902... addobs {pressure_hpa=982.7000122070312, longitude_deg=-97.31455993652344, elevation2_m=91, launch_id=yglsqhbocku2, gps_elevation_m=0, humidity_percent=32.47999954223633, unix_time_s=1637190104, latitude_deg=32.842010498046875, flags=209, temperature_c=20.809999465942383}